KSCF/SCF METAR and TAF weather

Enter ICAO airport designator
Station Type Date Time Source
KSCF METAR 2021/08/02 02:55 UTC NOAA

KSCF 020255Z AUTO VRB05KT 10SM BKN023 BKN028 30/25 A3004 RMK A01


Station Type Date Time Source
KSCF Decoded METAR 2021/08/02 02:55 UTC NOAA

South Marsh 268, LA, United States (KSCF) 29-06-57N 091-52-16W
Aug 01, 2021 - 10:55 PM EDT / 2021.08.02 0255 UTC
Wind: Variable at 6 MPH (5 KT):0
Visibility: 10 mile(s):0
Sky conditions: mostly cloudy
Temperature: 86 F (30 C)
Heat index: 96.8 F (36.0 C):1
Dew Point: 77 F (25 C)
Relative Humidity: 74%
Pressure (altimeter): 30.04 in. Hg (1017 hPa)
ob: KSCF 020255Z AUTO VRB05KT 10SM BKN023 BKN028 30/25 A3004 RMK A01
cycle: 3

Station Type Date Time Source
KSCF TAF UTC NOAA

Error!

Example: see airport list